sensor_id;sensor_type;location;lat;lon;timestamp;P1;durP1;ratioP1;P2;durP2;ratioP2
7128;SDS011;3606;52.930;8.644;2023-04-03T00:01:09;2.00;;;1.80;;
7128;SDS011;3606;52.930;8.644;2023-04-03T00:03:35;2.93;;;2.07;;
7128;SDS011;3606;52.930;8.644;2023-04-03T00:06:02;3.53;;;2.40;;
7128;SDS011;3606;52.930;8.644;2023-04-03T00:08:28;4.03;;;1.80;;
7128;SDS011;3606;52.930;8.644;2023-04-03T00:10:55;1.90;;;1.70;;
7128;SDS011;3606;52.930;8.644;2023-04-03T00:13:21;4.13;;;2.37;;
7128;SDS011;3606;52.930;8.644;2023-04-03T00:15:47;4.20;;;1.90;;
7128;SDS011;3606;52.930;8.644;2023-04-03T00:18:13;8.23;;;1.73;;
7128;SDS011;3606;52.930;8.644;2023-04-03T00:20:38;4.73;;;2.30;;
7128;SDS011;3606;52.930;8.644;2023-04-03T00:23:04;4.10;;;2.47;;
7128;SDS011;3606;52.930;8.644;2023-04-03T00:25:29;3.83;;;1.97;;
7128;SDS011;3606;52.930;8.644;2023-04-03T00:27:55;4.77;;;2.00;;
7128;SDS011;3606;52.930;8.644;2023-04-03T00:30:21;3.17;;;1.80;;
7128;SDS011;3606;52.930;8.644;2023-04-03T00:32:48;2.63;;;1.70;;
7128;SDS011;3606;52.930;8.644;2023-04-03T00:35:14;4.57;;;2.10;;
7128;SDS011;3606;52.930;8.644;2023-04-03T00:37:41;2.93;;;2.23;;
7128;SDS011;3606;52.930;8.644;2023-04-03T00:40:07;4.37;;;2.10;;
7128;SDS011;3606;52.930;8.644;2023-04-03T00:42:34;3.63;;;2.33;;
7128;SDS011;3606;52.930;8.644;2023-04-03T00:47:27;2.57;;;1.80;;
7128;SDS011;3606;52.930;8.644;2023-04-03T00:49:54;2.67;;;1.87;;
7128;SDS011;3606;52.930;8.644;2023-04-03T00:52:21;3.83;;;2.10;;
7128;SDS011;3606;52.930;8.644;2023-04-03T00:54:51;5.00;;;1.90;;
7128;SDS011;3606;52.930;8.644;2023-04-03T00:57:22;2.23;;;1.67;;
7128;SDS011;3606;52.930;8.644;2023-04-03T00:59:53;2.37;;;1.93;;
7128;SDS011;3606;52.930;8.644;2023-04-03T01:02:24;3.67;;;2.00;;
7128;SDS011;3606;52.930;8.644;2023-04-03T01:04:50;4.13;;;2.13;;
7128;SDS011;3606;52.930;8.644;2023-04-03T01:09:46;5.37;;;2.17;;
7128;SDS011;3606;52.930;8.644;2023-04-03T01:12:23;3.40;;;1.80;;
7128;SDS011;3606;52.930;8.644;2023-04-03T01:14:52;3.63;;;2.40;;
7128;SDS011;3606;52.930;8.644;2023-04-03T01:22:59;5.67;;;2.40;;
7128;SDS011;3606;52.930;8.644;2023-04-03T01:25:40;3.33;;;2.10;;
7128;SDS011;3606;52.930;8.644;2023-04-03T01:28:17;4.37;;;2.20;;
7128;SDS011;3606;52.930;8.644;2023-04-03T01:33:31;5.90;;;2.20;;
7128;SDS011;3606;52.930;8.644;2023-04-03T01:35:57;5.97;;;1.83;;
7128;SDS011;3606;52.930;8.644;2023-04-03T01:38:23;5.83;;;2.03;;
7128;SDS011;3606;52.930;8.644;2023-04-03T01:40:49;1.80;;;1.70;;
7128;SDS011;3606;52.930;8.644;2023-04-03T01:43:15;6.00;;;2.00;;
7128;SDS011;3606;52.930;8.644;2023-04-03T01:45:40;5.37;;;1.83;;
7128;SDS011;3606;52.930;8.644;2023-04-03T01:48:06;3.47;;;2.20;;
7128;SDS011;3606;52.930;8.644;2023-04-03T01:50:32;4.80;;;2.03;;
7128;SDS011;3606;52.930;8.644;2023-04-03T01:52:57;5.03;;;1.93;;
7128;SDS011;3606;52.930;8.644;2023-04-03T01:55:23;6.00;;;2.10;;
7128;SDS011;3606;52.930;8.644;2023-04-03T01:57:48;4.83;;;2.17;;
7128;SDS011;3606;52.930;8.644;2023-04-03T02:00:14;3.83;;;2.20;;
7128;SDS011;3606;52.930;8.644;2023-04-03T02:02:40;3.03;;;2.13;;
7128;SDS011;3606;52.930;8.644;2023-04-03T02:05:06;2.87;;;1.93;;
7128;SDS011;3606;52.930;8.644;2023-04-03T02:07:32;3.83;;;2.30;;
7128;SDS011;3606;52.930;8.644;2023-04-03T02:09:57;8.70;;;2.30;;
7128;SDS011;3606;52.930;8.644;2023-04-03T02:12:23;6.97;;;2.47;;
7128;SDS011;3606;52.930;8.644;2023-04-03T02:14:48;12.77;;;2.57;;
7128;SDS011;3606;52.930;8.644;2023-04-03T02:17:14;7.57;;;2.33;;
7128;SDS011;3606;52.930;8.644;2023-04-03T02:19:39;11.47;;;2.37;;
7128;SDS011;3606;52.930;8.644;2023-04-03T02:22:05;4.93;;;2.20;;
7128;SDS011;3606;52.930;8.644;2023-04-03T02:24:31;7.27;;;2.27;;
7128;SDS011;3606;52.930;8.644;2023-04-03T02:26:57;6.20;;;2.60;;
7128;SDS011;3606;52.930;8.644;2023-04-03T02:29:23;3.03;;;2.17;;
7128;SDS011;3606;52.930;8.644;2023-04-03T02:31:49;5.80;;;2.30;;
7128;SDS011;3606;52.930;8.644;2023-04-03T02:34:15;8.97;;;2.40;;
7128;SDS011;3606;52.930;8.644;2023-04-03T02:36:40;4.63;;;2.37;;
7128;SDS011;3606;52.930;8.644;2023-04-03T02:39:06;4.13;;;2.20;;
7128;SDS011;3606;52.930;8.644;2023-04-03T02:41:32;4.60;;;2.10;;
7128;SDS011;3606;52.930;8.644;2023-04-03T02:44:01;6.33;;;2.47;;
7128;SDS011;3606;52.930;8.644;2023-04-03T02:46:27;5.10;;;2.60;;
7128;SDS011;3606;52.930;8.644;2023-04-03T02:48:53;7.57;;;2.50;;
7128;SDS011;3606;52.930;8.644;2023-04-03T02:51:19;7.90;;;2.63;;
7128;SDS011;3606;52.930;8.644;2023-04-03T02:53:45;7.13;;;2.40;;
7128;SDS011;3606;52.930;8.644;2023-04-03T02:56:10;3.40;;;2.50;;
7128;SDS011;3606;52.930;8.644;2023-04-03T02:58:36;11.13;;;2.47;;
7128;SDS011;3606;52.930;8.644;2023-04-03T03:01:02;4.20;;;2.20;;
7128;SDS011;3606;52.930;8.644;2023-04-03T03:03:28;5.70;;;2.40;;
7128;SDS011;3606;52.930;8.644;2023-04-03T03:06:04;5.33;;;2.33;;
7128;SDS011;3606;52.930;8.644;2023-04-03T03:08:31;5.63;;;2.40;;
7128;SDS011;3606;52.930;8.644;2023-04-03T03:10:57;4.23;;;2.37;;
7128;SDS011;3606;52.930;8.644;2023-04-03T03:13:22;7.43;;;2.93;;
7128;SDS011;3606;52.930;8.644;2023-04-03T03:15:48;5.97;;;2.60;;
7128;SDS011;3606;52.930;8.644;2023-04-03T03:18:14;6.43;;;2.70;;
7128;SDS011;3606;52.930;8.644;2023-04-03T03:20:40;5.60;;;2.27;;
7128;SDS011;3606;52.930;8.644;2023-04-03T03:23:05;5.90;;;2.70;;
7128;SDS011;3606;52.930;8.644;2023-04-03T03:25:31;4.10;;;2.27;;
7128;SDS011;3606;52.930;8.644;2023-04-03T03:27:57;4.00;;;2.13;;
7128;SDS011;3606;52.930;8.644;2023-04-03T03:30:22;5.77;;;2.73;;
7128;SDS011;3606;52.930;8.644;2023-04-03T03:32:48;4.13;;;2.33;;
7128;SDS011;3606;52.930;8.644;2023-04-03T03:35:13;3.70;;;2.23;;
7128;SDS011;3606;52.930;8.644;2023-04-03T03:37:39;5.40;;;2.90;;
7128;SDS011;3606;52.930;8.644;2023-04-03T03:40:05;5.20;;;2.70;;
7128;SDS011;3606;52.930;8.644;2023-04-03T03:42:31;5.70;;;2.83;;
7128;SDS011;3606;52.930;8.644;2023-04-03T03:44:56;5.23;;;2.40;;
7128;SDS011;3606;52.930;8.644;2023-04-03T03:47:22;3.70;;;2.17;;
7128;SDS011;3606;52.930;8.644;2023-04-03T03:49:48;4.23;;;2.50;;
7128;SDS011;3606;52.930;8.644;2023-04-03T03:52:13;4.10;;;2.70;;
7128;SDS011;3606;52.930;8.644;2023-04-03T03:54:39;3.07;;;2.27;;
7128;SDS011;3606;52.930;8.644;2023-04-03T03:57:04;8.17;;;2.70;;
7128;SDS011;3606;52.930;8.644;2023-04-03T03:59:30;6.20;;;2.57;;
7128;SDS011;3606;52.930;8.644;2023-04-03T04:01:56;9.07;;;2.60;;
7128;SDS011;3606;52.930;8.644;2023-04-03T04:04:21;9.07;;;2.70;;
7128;SDS011;3606;52.930;8.644;2023-04-03T04:06:47;4.97;;;2.73;;
7128;SDS011;3606;52.930;8.644;2023-04-03T04:09:13;3.93;;;2.40;;
7128;SDS011;3606;52.930;8.644;2023-04-03T04:11:38;4.93;;;2.20;;
7128;SDS011;3606;52.930;8.644;2023-04-03T04:14:05;3.80;;;2.40;;
7128;SDS011;3606;52.930;8.644;2023-04-03T04:16:31;7.03;;;2.40;;
7128;SDS011;3606;52.930;8.644;2023-04-03T04:18:57;2.80;;;2.03;;
7128;SDS011;3606;52.930;8.644;2023-04-03T04:21:22;6.43;;;2.13;;
7128;SDS011;3606;52.930;8.644;2023-04-03T04:23:48;4.33;;;2.20;;
7128;SDS011;3606;52.930;8.644;2023-04-03T04:26:13;4.70;;;2.37;;
7128;SDS011;3606;52.930;8.644;2023-04-03T04:28:39;4.83;;;2.53;;
7128;SDS011;3606;52.930;8.644;2023-04-03T04:31:05;10.10;;;2.37;;
7128;SDS011;3606;52.930;8.644;2023-04-03T04:33:30;4.90;;;2.47;;
7128;SDS011;3606;52.930;8.644;2023-04-03T04:35:56;4.37;;;1.70;;
7128;SDS011;3606;52.930;8.644;2023-04-03T04:38:21;3.23;;;2.03;;
7128;SDS011;3606;52.930;8.644;2023-04-03T04:40:47;3.77;;;2.17;;
7128;SDS011;3606;52.930;8.644;2023-04-03T04:43:13;10.93;;;2.17;;
7128;SDS011;3606;52.930;8.644;2023-04-03T04:45:40;2.23;;;1.83;;
7128;SDS011;3606;52.930;8.644;2023-04-03T04:48:06;7.80;;;2.50;;
7128;SDS011;3606;52.930;8.644;2023-04-03T04:50:31;5.50;;;2.53;;
7128;SDS011;3606;52.930;8.644;2023-04-03T04:52:57;4.67;;;2.43;;
7128;SDS011;3606;52.930;8.644;2023-04-03T04:55:22;5.13;;;2.10;;
7128;SDS011;3606;52.930;8.644;2023-04-03T04:57:48;5.33;;;2.83;;
7128;SDS011;3606;52.930;8.644;2023-04-03T05:00:14;2.47;;;2.20;;
7128;SDS011;3606;52.930;8.644;2023-04-03T05:02:40;4.50;;;2.37;;
7128;SDS011;3606;52.930;8.644;2023-04-03T05:05:06;6.97;;;2.50;;
7128;SDS011;3606;52.930;8.644;2023-04-03T05:07:32;3.43;;;2.00;;
7128;SDS011;3606;52.930;8.644;2023-04-03T05:09:57;5.53;;;2.53;;
7128;SDS011;3606;52.930;8.644;2023-04-03T05:12:23;6.23;;;2.27;;
7128;SDS011;3606;52.930;8.644;2023-04-03T05:14:49;5.60;;;2.47;;
7128;SDS011;3606;52.930;8.644;2023-04-03T05:17:14;4.80;;;2.50;;
7128;SDS011;3606;52.930;8.644;2023-04-03T05:19:40;5.93;;;2.60;;
7128;SDS011;3606;52.930;8.644;2023-04-03T05:22:06;8.40;;;2.60;;
7128;SDS011;3606;52.930;8.644;2023-04-03T05:24:31;6.60;;;2.33;;
7128;SDS011;3606;52.930;8.644;2023-04-03T05:26:57;9.00;;;2.90;;
7128;SDS011;3606;52.930;8.644;2023-04-03T05:29:22;13.87;;;2.50;;
7128;SDS011;3606;52.930;8.644;2023-04-03T05:31:51;7.00;;;2.23;;
7128;SDS011;3606;52.930;8.644;2023-04-03T05:34:17;7.50;;;2.53;;
7128;SDS011;3606;52.930;8.644;2023-04-03T05:36:42;3.83;;;2.17;;
7128;SDS011;3606;52.930;8.644;2023-04-03T05:39:08;6.20;;;2.47;;
7128;SDS011;3606;52.930;8.644;2023-04-03T05:41:34;5.47;;;2.73;;
7128;SDS011;3606;52.930;8.644;2023-04-03T05:43:59;6.60;;;2.37;;
7128;SDS011;3606;52.930;8.644;2023-04-03T05:46:25;7.23;;;2.53;;
7128;SDS011;3606;52.930;8.644;2023-04-03T05:48:51;5.47;;;3.00;;
7128;SDS011;3606;52.930;8.644;2023-04-03T05:51:22;4.63;;;2.33;;
7128;SDS011;3606;52.930;8.644;2023-04-03T05:53:52;3.60;;;2.47;;
7128;SDS011;3606;52.930;8.644;2023-04-03T05:56:47;5.00;;;2.37;;
7128;SDS011;3606;52.930;8.644;2023-04-03T05:59:14;9.33;;;3.20;;
7128;SDS011;3606;52.930;8.644;2023-04-03T06:01:40;4.83;;;2.37;;
7128;SDS011;3606;52.930;8.644;2023-04-03T06:04:06;6.90;;;2.80;;
7128;SDS011;3606;52.930;8.644;2023-04-03T06:06:43;7.50;;;3.00;;
7128;SDS011;3606;52.930;8.644;2023-04-03T06:09:10;6.50;;;2.50;;
7128;SDS011;3606;52.930;8.644;2023-04-03T06:11:36;5.77;;;2.67;;
7128;SDS011;3606;52.930;8.644;2023-04-03T06:14:02;7.50;;;2.97;;
7128;SDS011;3606;52.930;8.644;2023-04-03T06:16:28;6.10;;;3.03;;
7128;SDS011;3606;52.930;8.644;2023-04-03T06:18:53;6.93;;;2.40;;
7128;SDS011;3606;52.930;8.644;2023-04-03T06:21:20;3.27;;;2.40;;
7128;SDS011;3606;52.930;8.644;2023-04-03T06:23:45;4.37;;;2.40;;
7128;SDS011;3606;52.930;8.644;2023-04-03T06:26:11;2.40;;;2.10;;
7128;SDS011;3606;52.930;8.644;2023-04-03T06:28:36;6.10;;;2.50;;
7128;SDS011;3606;52.930;8.644;2023-04-03T06:31:02;3.73;;;2.10;;
7128;SDS011;3606;52.930;8.644;2023-04-03T06:33:28;3.37;;;2.17;;
7128;SDS011;3606;52.930;8.644;2023-04-03T06:35:59;3.73;;;2.10;;
7128;SDS011;3606;52.930;8.644;2023-04-03T06:38:28;4.47;;;2.00;;
7128;SDS011;3606;52.930;8.644;2023-04-03T06:40:54;5.93;;;2.47;;
7128;SDS011;3606;52.930;8.644;2023-04-03T06:43:20;6.40;;;2.57;;
7128;SDS011;3606;52.930;8.644;2023-04-03T06:45:46;5.77;;;2.27;;
7128;SDS011;3606;52.930;8.644;2023-04-03T06:48:12;5.17;;;2.40;;
7128;SDS011;3606;52.930;8.644;2023-04-03T06:50:38;2.73;;;2.00;;
7128;SDS011;3606;52.930;8.644;2023-04-03T06:53:04;2.23;;;1.80;;
7128;SDS011;3606;52.930;8.644;2023-04-03T06:55:30;7.23;;;2.13;;
7128;SDS011;3606;52.930;8.644;2023-04-03T06:57:56;9.53;;;2.30;;
7128;SDS011;3606;52.930;8.644;2023-04-03T07:00:22;4.73;;;2.03;;
7128;SDS011;3606;52.930;8.644;2023-04-03T07:02:48;7.03;;;2.07;;
7128;SDS011;3606;52.930;8.644;2023-04-03T07:05:13;10.23;;;2.10;;
7128;SDS011;3606;52.930;8.644;2023-04-03T07:07:39;4.10;;;2.00;;
7128;SDS011;3606;52.930;8.644;2023-04-03T07:10:06;5.10;;;1.90;;
7128;SDS011;3606;52.930;8.644;2023-04-03T07:12:33;3.87;;;1.97;;
7128;SDS011;3606;52.930;8.644;2023-04-03T07:14:58;2.37;;;1.67;;
7128;SDS011;3606;52.930;8.644;2023-04-03T07:17:24;7.50;;;2.10;;
7128;SDS011;3606;52.930;8.644;2023-04-03T07:19:50;7.07;;;2.23;;
7128;SDS011;3606;52.930;8.644;2023-04-03T07:22:16;3.90;;;1.90;;
7128;SDS011;3606;52.930;8.644;2023-04-03T07:24:42;4.73;;;2.30;;
7128;SDS011;3606;52.930;8.644;2023-04-03T07:27:07;3.30;;;1.77;;
7128;SDS011;3606;52.930;8.644;2023-04-03T07:29:34;4.17;;;1.83;;
7128;SDS011;3606;52.930;8.644;2023-04-03T07:32:00;6.13;;;2.10;;
7128;SDS011;3606;52.930;8.644;2023-04-03T07:34:26;7.67;;;2.00;;
7128;SDS011;3606;52.930;8.644;2023-04-03T07:36:52;3.20;;;1.80;;
7128;SDS011;3606;52.930;8.644;2023-04-03T07:39:18;4.73;;;1.77;;
7128;SDS011;3606;52.930;8.644;2023-04-03T07:41:43;3.87;;;2.07;;
7128;SDS011;3606;52.930;8.644;2023-04-03T07:44:10;4.17;;;1.80;;
7128;SDS011;3606;52.930;8.644;2023-04-03T07:46:36;3.00;;;1.50;;
7128;SDS011;3606;52.930;8.644;2023-04-03T07:49:03;4.17;;;1.57;;
7128;SDS011;3606;52.930;8.644;2023-04-03T07:51:28;3.47;;;1.30;;
7128;SDS011;3606;52.930;8.644;2023-04-03T07:53:54;2.90;;;1.67;;
7128;SDS011;3606;52.930;8.644;2023-04-03T07:56:20;2.50;;;1.43;;
7128;SDS011;3606;52.930;8.644;2023-04-03T07:58:46;1.93;;;1.30;;
7128;SDS011;3606;52.930;8.644;2023-04-03T08:01:12;3.47;;;1.43;;
7128;SDS011;3606;52.930;8.644;2023-04-03T08:03:38;2.47;;;1.50;;
7128;SDS011;3606;52.930;8.644;2023-04-03T08:06:05;4.33;;;2.10;;
7128;SDS011;3606;52.930;8.644;2023-04-03T08:08:32;3.50;;;1.60;;
7128;SDS011;3606;52.930;8.644;2023-04-03T08:10:58;2.30;;;1.53;;
7128;SDS011;3606;52.930;8.644;2023-04-03T08:13:25;4.43;;;1.60;;
7128;SDS011;3606;52.930;8.644;2023-04-03T08:15:51;1.70;;;1.30;;
7128;SDS011;3606;52.930;8.644;2023-04-03T08:18:17;2.63;;;1.40;;
7128;SDS011;3606;52.930;8.644;2023-04-03T08:20:46;4.97;;;1.57;;
7128;SDS011;3606;52.930;8.644;2023-04-03T08:23:12;3.83;;;1.60;;
7128;SDS011;3606;52.930;8.644;2023-04-03T08:25:39;5.73;;;1.40;;
7128;SDS011;3606;52.930;8.644;2023-04-03T08:28:05;4.17;;;1.80;;
7128;SDS011;3606;52.930;8.644;2023-04-03T08:30:32;5.27;;;2.97;;
7128;SDS011;3606;52.930;8.644;2023-04-03T08:33:00;3.07;;;1.57;;
7128;SDS011;3606;52.930;8.644;2023-04-03T08:35:26;2.90;;;1.23;;
7128;SDS011;3606;52.930;8.644;2023-04-03T08:37:52;2.40;;;1.60;;
7128;SDS011;3606;52.930;8.644;2023-04-03T08:40:17;2.40;;;1.27;;
7128;SDS011;3606;52.930;8.644;2023-04-03T08:42:51;4.37;;;1.53;;
7128;SDS011;3606;52.930;8.644;2023-04-03T08:45:38;3.67;;;1.60;;
7128;SDS011;3606;52.930;8.644;2023-04-03T08:48:20;1.70;;;1.00;;
7128;SDS011;3606;52.930;8.644;2023-04-03T08:50:53;2.20;;;1.30;;
7128;SDS011;3606;52.930;8.644;2023-04-03T08:53:25;2.57;;;1.40;;
7128;SDS011;3606;52.930;8.644;2023-04-03T08:55:56;5.33;;;1.63;;
7128;SDS011;3606;52.930;8.644;2023-04-03T08:58:29;5.60;;;1.63;;
7128;SDS011;3606;52.930;8.644;2023-04-03T09:01:02;2.37;;;1.23;;
7128;SDS011;3606;52.930;8.644;2023-04-03T09:03:39;1.90;;;1.10;;
7128;SDS011;3606;52.930;8.644;2023-04-03T09:06:16;2.13;;;1.93;;
7128;SDS011;3606;52.930;8.644;2023-04-03T09:12:00;2.77;;;1.13;;
7128;SDS011;3606;52.930;8.644;2023-04-03T09:14:46;1.70;;;1.00;;
7128;SDS011;3606;52.930;8.644;2023-04-03T09:17:29;0.97;;;0.70;;
7128;SDS011;3606;52.930;8.644;2023-04-03T09:20:19;1.40;;;0.90;;
7128;SDS011;3606;52.930;8.644;2023-04-03T09:23:22;1.30;;;0.90;;
7128;SDS011;3606;52.930;8.644;2023-04-03T09:26:02;2.60;;;1.10;;
7128;SDS011;3606;52.930;8.644;2023-04-03T09:28:31;1.43;;;0.90;;
7128;SDS011;3606;52.930;8.644;2023-04-03T09:31:01;1.30;;;1.00;;
7128;SDS011;3606;52.930;8.644;2023-04-03T09:33:31;2.10;;;1.30;;
7128;SDS011;3606;52.930;8.644;2023-04-03T09:35:59;2.67;;;1.37;;
7128;SDS011;3606;52.930;8.644;2023-04-03T09:38:24;1.30;;;1.17;;
7128;SDS011;3606;52.930;8.644;2023-04-03T09:41:35;2.03;;;1.20;;
7128;SDS011;3606;52.930;8.644;2023-04-03T09:43:52;2.57;;;1.10;;
7128;SDS011;3606;52.930;8.644;2023-04-03T09:46:29;2.63;;;1.20;;
7128;SDS011;3606;52.930;8.644;2023-04-03T09:48:58;3.20;;;1.23;;
7128;SDS011;3606;52.930;8.644;2023-04-03T09:51:28;1.80;;;1.23;;
7128;SDS011;3606;52.930;8.644;2023-04-03T09:53:54;2.53;;;1.00;;
7128;SDS011;3606;52.930;8.644;2023-04-03T10:06:35;2.30;;;1.30;;
7128;SDS011;3606;52.930;8.644;2023-04-03T10:09:19;2.57;;;1.10;;
7128;SDS011;3606;52.930;8.644;2023-04-03T10:11:59;1.90;;;1.17;;
7128;SDS011;3606;52.930;8.644;2023-04-03T10:14:36;3.10;;;1.30;;
7128;SDS011;3606;52.930;8.644;2023-04-03T10:22:27;2.63;;;1.20;;
7128;SDS011;3606;52.930;8.644;2023-04-03T10:46:42;1.50;;;0.93;;
7128;SDS011;3606;52.930;8.644;2023-04-03T10:52:12;1.83;;;0.83;;
7128;SDS011;3606;52.930;8.644;2023-04-03T10:54:49;2.10;;;1.10;;
7128;SDS011;3606;52.930;8.644;2023-04-03T10:57:49;1.77;;;1.10;;
7128;SDS011;3606;52.930;8.644;2023-04-03T11:00:16;1.87;;;1.00;;
7128;SDS011;3606;52.930;8.644;2023-04-03T11:03:08;2.43;;;1.43;;
7128;SDS011;3606;52.930;8.644;2023-04-03T11:05:56;2.10;;;1.07;;
7128;SDS011;3606;52.930;8.644;2023-04-03T11:08:30;1.93;;;1.20;;
7128;SDS011;3606;52.930;8.644;2023-04-03T11:10:59;5.47;;;1.10;;
7128;SDS011;3606;52.930;8.644;2023-04-03T11:15:59;1.90;;;0.93;;
7128;SDS011;3606;52.930;8.644;2023-04-03T11:18:39;1.93;;;1.30;;
7128;SDS011;3606;52.930;8.644;2023-04-03T11:21:29;1.10;;;1.00;;
7128;SDS011;3606;52.930;8.644;2023-04-03T11:24:00;1.73;;;1.33;;
7128;SDS011;3606;52.930;8.644;2023-04-03T11:26:31;1.73;;;1.23;;
7128;SDS011;3606;52.930;8.644;2023-04-03T11:29:06;1.83;;;1.03;;
7128;SDS011;3606;52.930;8.644;2023-04-03T11:34:15;1.70;;;1.20;;
7128;SDS011;3606;52.930;8.644;2023-04-03T11:36:54;2.03;;;1.40;;
7128;SDS011;3606;52.930;8.644;2023-04-03T11:39:28;1.23;;;1.13;;
7128;SDS011;3606;52.930;8.644;2023-04-03T11:50:53;1.20;;;0.93;;
7128;SDS011;3606;52.930;8.644;2023-04-03T11:53:36;2.20;;;1.47;;
7128;SDS011;3606;52.930;8.644;2023-04-03T11:56:26;2.43;;;1.10;;
7128;SDS011;3606;52.930;8.644;2023-04-03T12:04:08;1.63;;;1.23;;
7128;SDS011;3606;52.930;8.644;2023-04-03T12:09:04;2.43;;;1.07;;
7128;SDS011;3606;52.930;8.644;2023-04-03T12:11:59;2.60;;;1.00;;
7128;SDS011;3606;52.930;8.644;2023-04-03T12:14:42;2.23;;;1.00;;
7128;SDS011;3606;52.930;8.644;2023-04-03T12:17:12;2.43;;;1.23;;
7128;SDS011;3606;52.930;8.644;2023-04-03T12:19:51;1.67;;;1.07;;
7128;SDS011;3606;52.930;8.644;2023-04-03T12:22:17;4.70;;;1.40;;
7128;SDS011;3606;52.930;8.644;2023-04-03T12:24:46;3.20;;;0.87;;
7128;SDS011;3606;52.930;8.644;2023-04-03T12:40:43;1.70;;;1.50;;
7128;SDS011;3606;52.930;8.644;2023-04-03T12:48:50;2.63;;;1.40;;
7128;SDS011;3606;52.930;8.644;2023-04-03T12:54:27;4.23;;;1.60;;
7128;SDS011;3606;52.930;8.644;2023-04-03T12:59:36;2.07;;;1.30;;
7128;SDS011;3606;52.930;8.644;2023-04-03T13:02:03;1.37;;;1.20;;
7128;SDS011;3606;52.930;8.644;2023-04-03T13:04:44;3.70;;;1.90;;
7128;SDS011;3606;52.930;8.644;2023-04-03T13:07:24;2.80;;;1.60;;
7128;SDS011;3606;52.930;8.644;2023-04-03T13:12:45;1.47;;;1.10;;
7128;SDS011;3606;52.930;8.644;2023-04-03T13:15:17;2.27;;;1.40;;
7128;SDS011;3606;52.930;8.644;2023-04-03T13:17:50;1.57;;;1.40;;
7128;SDS011;3606;52.930;8.644;2023-04-03T13:25:17;1.60;;;1.07;;
7128;SDS011;3606;52.930;8.644;2023-04-03T13:27:44;3.00;;;1.37;;
7128;SDS011;3606;52.930;8.644;2023-04-03T13:30:21;2.50;;;1.50;;
7128;SDS011;3606;52.930;8.644;2023-04-03T13:32:51;1.30;;;1.20;;
7128;SDS011;3606;52.930;8.644;2023-04-03T13:37:59;3.63;;;1.50;;
7128;SDS011;3606;52.930;8.644;2023-04-03T13:40:27;4.67;;;1.80;;
7128;SDS011;3606;52.930;8.644;2023-04-03T13:43:04;1.67;;;1.43;;
7128;SDS011;3606;52.930;8.644;2023-04-03T13:45:42;2.17;;;1.40;;
7128;SDS011;3606;52.930;8.644;2023-04-03T13:48:21;2.43;;;1.87;;
7128;SDS011;3606;52.930;8.644;2023-04-03T13:50:56;2.40;;;1.70;;
7128;SDS011;3606;52.930;8.644;2023-04-03T13:53:25;1.37;;;1.27;;
7128;SDS011;3606;52.930;8.644;2023-04-03T13:55:57;2.47;;;1.90;;
7128;SDS011;3606;52.930;8.644;2023-04-03T13:58:34;1.77;;;1.20;;
7128;SDS011;3606;52.930;8.644;2023-04-03T14:06:13;1.43;;;1.20;;
7128;SDS011;3606;52.930;8.644;2023-04-03T14:08:40;3.33;;;1.67;;
7128;SDS011;3606;52.930;8.644;2023-04-03T14:11:08;4.80;;;1.60;;
7128;SDS011;3606;52.930;8.644;2023-04-03T14:13:39;3.77;;;1.17;;
7128;SDS011;3606;52.930;8.644;2023-04-03T14:16:05;2.40;;;1.50;;
7128;SDS011;3606;52.930;8.644;2023-04-03T14:18:31;1.83;;;1.20;;
7128;SDS011;3606;52.930;8.644;2023-04-03T14:20:57;3.60;;;1.40;;
7128;SDS011;3606;52.930;8.644;2023-04-03T14:23:22;2.20;;;1.57;;
7128;SDS011;3606;52.930;8.644;2023-04-03T14:25:48;4.17;;;1.87;;
7128;SDS011;3606;52.930;8.644;2023-04-03T14:28:16;1.50;;;1.40;;
7128;SDS011;3606;52.930;8.644;2023-04-03T14:30:47;2.37;;;1.40;;
7128;SDS011;3606;52.930;8.644;2023-04-03T14:33:16;1.93;;;1.30;;
7128;SDS011;3606;52.930;8.644;2023-04-03T14:35:45;2.40;;;1.37;;
7128;SDS011;3606;52.930;8.644;2023-04-03T14:40:52;2.87;;;1.57;;
7128;SDS011;3606;52.930;8.644;2023-04-03T14:43:18;3.10;;;1.70;;
7128;SDS011;3606;52.930;8.644;2023-04-03T14:45:45;3.47;;;1.50;;
7128;SDS011;3606;52.930;8.644;2023-04-03T14:48:15;2.90;;;1.70;;
7128;SDS011;3606;52.930;8.644;2023-04-03T14:50:44;2.20;;;1.30;;
7128;SDS011;3606;52.930;8.644;2023-04-03T14:53:10;2.27;;;1.70;;
7128;SDS011;3606;52.930;8.644;2023-04-03T14:55:37;3.97;;;1.43;;
7128;SDS011;3606;52.930;8.644;2023-04-03T14:58:03;2.57;;;1.43;;
7128;SDS011;3606;52.930;8.644;2023-04-03T15:00:28;2.93;;;1.40;;
7128;SDS011;3606;52.930;8.644;2023-04-03T15:02:54;1.17;;;1.07;;
7128;SDS011;3606;52.930;8.644;2023-04-03T15:05:20;2.97;;;1.27;;
7128;SDS011;3606;52.930;8.644;2023-04-03T15:07:49;4.80;;;1.50;;
7128;SDS011;3606;52.930;8.644;2023-04-03T15:12:46;3.10;;;1.37;;
7128;SDS011;3606;52.930;8.644;2023-04-03T15:15:16;2.13;;;1.50;;
7128;SDS011;3606;52.930;8.644;2023-04-03T15:17:44;2.67;;;1.70;;
7128;SDS011;3606;52.930;8.644;2023-04-03T15:20:16;2.67;;;1.70;;
7128;SDS011;3606;52.930;8.644;2023-04-03T15:22:43;3.97;;;1.80;;
7128;SDS011;3606;52.930;8.644;2023-04-03T15:25:09;4.70;;;1.97;;
7128;SDS011;3606;52.930;8.644;2023-04-03T15:27:36;3.60;;;2.20;;
7128;SDS011;3606;52.930;8.644;2023-04-03T15:30:03;3.30;;;1.37;;
7128;SDS011;3606;52.930;8.644;2023-04-03T15:32:32;2.33;;;1.67;;
7128;SDS011;3606;52.930;8.644;2023-04-03T15:34:59;2.97;;;1.93;;
7128;SDS011;3606;52.930;8.644;2023-04-03T15:37:26;2.53;;;1.50;;
7128;SDS011;3606;52.930;8.644;2023-04-03T15:39:51;3.73;;;1.73;;
7128;SDS011;3606;52.930;8.644;2023-04-03T15:42:17;2.70;;;1.60;;
7128;SDS011;3606;52.930;8.644;2023-04-03T15:44:42;4.63;;;1.60;;
7128;SDS011;3606;52.930;8.644;2023-04-03T15:47:08;2.23;;;1.20;;
7128;SDS011;3606;52.930;8.644;2023-04-03T15:49:34;2.60;;;1.40;;
7128;SDS011;3606;52.930;8.644;2023-04-03T15:52:00;1.80;;;1.37;;
7128;SDS011;3606;52.930;8.644;2023-04-03T15:54:26;4.17;;;1.70;;
7128;SDS011;3606;52.930;8.644;2023-04-03T15:56:52;1.47;;;1.37;;
7128;SDS011;3606;52.930;8.644;2023-04-03T15:59:18;5.27;;;1.60;;
7128;SDS011;3606;52.930;8.644;2023-04-03T16:01:43;2.87;;;1.63;;
7128;SDS011;3606;52.930;8.644;2023-04-03T16:04:09;3.43;;;1.83;;
7128;SDS011;3606;52.930;8.644;2023-04-03T16:06:35;3.80;;;1.73;;
7128;SDS011;3606;52.930;8.644;2023-04-03T16:09:02;2.00;;;1.50;;
7128;SDS011;3606;52.930;8.644;2023-04-03T16:11:28;2.30;;;1.65;;
7128;SDS011;3606;52.930;8.644;2023-04-03T16:13:55;2.67;;;1.80;;
7128;SDS011;3606;52.930;8.644;2023-04-03T16:16:21;2.00;;;1.50;;
7128;SDS011;3606;52.930;8.644;2023-04-03T16:18:48;1.50;;;1.30;;
7128;SDS011;3606;52.930;8.644;2023-04-03T16:21:14;3.27;;;1.50;;
7128;SDS011;3606;52.930;8.644;2023-04-03T16:23:41;1.60;;;1.20;;
7128;SDS011;3606;52.930;8.644;2023-04-03T16:26:07;6.80;;;1.33;;
7128;SDS011;3606;52.930;8.644;2023-04-03T16:28:33;3.10;;;1.40;;
7128;SDS011;3606;52.930;8.644;2023-04-03T16:30:59;2.00;;;1.37;;
7128;SDS011;3606;52.930;8.644;2023-04-03T16:33:26;2.47;;;1.47;;
7128;SDS011;3606;52.930;8.644;2023-04-03T16:35:52;2.90;;;1.73;;
7128;SDS011;3606;52.930;8.644;2023-04-03T16:38:18;3.80;;;1.70;;
7128;SDS011;3606;52.930;8.644;2023-04-03T16:40:44;2.67;;;1.60;;
7128;SDS011;3606;52.930;8.644;2023-04-03T16:43:10;2.77;;;1.40;;
7128;SDS011;3606;52.930;8.644;2023-04-03T16:45:36;1.50;;;1.40;;
7128;SDS011;3606;52.930;8.644;2023-04-03T16:48:02;3.50;;;1.30;;
7128;SDS011;3606;52.930;8.644;2023-04-03T16:50:28;2.03;;;1.53;;
7128;SDS011;3606;52.930;8.644;2023-04-03T16:52:53;3.53;;;1.90;;
7128;SDS011;3606;52.930;8.644;2023-04-03T16:55:19;6.10;;;1.93;;
7128;SDS011;3606;52.930;8.644;2023-04-03T16:57:45;3.13;;;1.70;;
7128;SDS011;3606;52.930;8.644;2023-04-03T17:00:11;2.30;;;1.73;;
7128;SDS011;3606;52.930;8.644;2023-04-03T17:02:38;4.20;;;1.67;;
7128;SDS011;3606;52.930;8.644;2023-04-03T17:05:04;2.37;;;1.80;;
7128;SDS011;3606;52.930;8.644;2023-04-03T17:07:30;2.23;;;1.80;;
7128;SDS011;3606;52.930;8.644;2023-04-03T17:09:56;4.23;;;1.80;;
7128;SDS011;3606;52.930;8.644;2023-04-03T17:12:22;1.93;;;1.47;;
7128;SDS011;3606;52.930;8.644;2023-04-03T17:14:48;4.00;;;1.70;;
7128;SDS011;3606;52.930;8.644;2023-04-03T17:17:14;1.80;;;1.47;;
7128;SDS011;3606;52.930;8.644;2023-04-03T17:19:40;2.80;;;1.43;;
7128;SDS011;3606;52.930;8.644;2023-04-03T17:22:08;5.63;;;2.00;;
7128;SDS011;3606;52.930;8.644;2023-04-03T17:24:34;3.13;;;1.60;;
7128;SDS011;3606;52.930;8.644;2023-04-03T17:27:01;4.57;;;1.90;;